Time;durP1;ratioP1;P1;durP2;ratioP2;P2;SDS_P1;SDS_P2;PMS_P1;PMS_P2;Temp;Humidity;BMP_temperature;BMP_pressure;BME280_temperature;BME280_humidity;BME280_pressure;Samples;Min_cycle;Max_cycle;Signal;HPM_P1;HPM_P2
2022/05/08 00:01:08;;;;;;;20.70;18.90;;;14.20;99.80;;;;;;6099544;23;20722;-81
2022/05/08 00:03:34;;;;;;;21.17;18.93;;;14.10;99.90;;;;;;6116427;23;20410;-79
2022/05/08 00:06:06;;;;;;;20.10;18.30;;;14.10;99.90;;;;;;6107770;23;20409;-81
2022/05/08 00:11:10;;;;;;;20.70;18.67;;;13.90;99.90;;;;;;6133288;23;20434;-88
2022/05/08 00:13:37;;;;;;;21.80;19.90;;;13.90;99.90;;;;;;6146161;23;20395;-87
2022/05/08 00:16:04;;;;;;;22.80;20.70;;;13.90;99.90;;;;;;6152290;23;20422;-88
2022/05/08 00:18:31;;;;;;;21.83;19.87;;;13.80;99.90;;;;;;6149956;23;20386;-87
2022/05/08 00:20:58;;;;;;;21.43;19.40;;;13.80;99.90;;;;;;6101261;23;20423;-87
2022/05/08 00:23:25;;;;;;;22.27;20.03;;;13.70;99.90;;;;;;6105421;23;20423;-88
2022/05/08 00:25:51;;;;;;;23.10;21.00;;;13.70;99.90;;;;;;6105203;23;20412;-88
2022/05/08 00:28:19;;;;;;;23.37;21.17;;;13.70;99.90;;;;;;6104419;23;20458;-88
2022/05/08 00:30:46;;;;;;;22.13;19.93;;;13.70;99.90;;;;;;6097816;23;20459;-88
2022/05/08 00:33:13;;;;;;;22.80;20.60;;;13.60;99.90;;;;;;6097197;23;20406;-87
2022/05/08 00:35:40;;;;;;;22.90;20.97;;;13.60;99.90;;;;;;6096898;23;20879;-88
2022/05/08 00:38:06;;;;;;;21.73;19.63;;;13.50;99.90;;;;;;6097332;23;20418;-88
2022/05/08 00:40:35;;;;;;;22.17;20.27;;;13.40;99.90;;;;;;6101959;23;20454;-87
2022/05/08 00:43:28;;;;;;;22.00;19.90;;;13.50;99.90;;;;;;6112879;23;20413;-88
2022/05/08 00:45:55;;;;;;;22.43;20.63;;;13.50;99.90;;;;;;6096389;23;20425;-88
2022/05/08 00:48:22;;;;;;;24.57;22.30;;;13.50;99.90;;;;;;6097252;23;20442;-88
2022/05/08 00:50:50;;;;;;;22.30;20.33;;;13.40;99.90;;;;;;6116761;23;20431;-88
2022/05/08 00:53:17;;;;;;;22.67;20.53;;;13.40;99.90;;;;;;6115159;23;20722;-88
2022/05/08 00:55:44;;;;;;;22.13;20.23;;;13.40;99.90;;;;;;6097348;23;20902;-87
2022/05/08 00:58:11;;;;;;;23.27;21.13;;;13.40;99.90;;;;;;6097124;23;20923;-88
2022/05/08 01:00:39;;;;;;;21.67;19.87;;;13.30;99.90;;;;;;6097313;23;21007;-88
2022/05/08 01:03:06;;;;;;;22.47;20.47;;;13.40;99.90;;;;;;6097154;23;20410;-88
2022/05/08 01:05:34;;;;;;;23.53;21.30;;;13.40;99.90;;;;;;6097314;23;20433;-88
2022/05/08 01:08:02;;;;;;;24.17;21.73;;;13.40;99.90;;;;;;6097063;23;20553;-88
2022/05/08 01:10:29;;;;;;;23.37;21.37;;;13.30;99.90;;;;;;6097246;23;20770;-88
2022/05/08 01:12:56;;;;;;;22.10;20.10;;;13.30;99.90;;;;;;6097767;23;20418;-88
2022/05/08 01:15:22;;;;;;;22.40;20.60;;;13.30;99.90;;;;;;6102409;23;20402;-88
2022/05/08 01:17:52;;;;;;;25.30;23.10;;;13.30;99.90;;;;;;6120951;23;20404;-88
2022/05/08 01:20:19;;;;;;;23.13;21.13;;;13.20;99.90;;;;;;6115601;23;20434;-87
2022/05/08 01:22:47;;;;;;;23.10;20.80;;;13.20;99.90;;;;;;6118889;23;20438;-88
2022/05/08 01:25:14;;;;;;;22.20;20.00;;;13.20;99.90;;;;;;6120690;23;20409;-88
2022/05/08 01:27:41;;;;;;;21.13;19.33;;;13.10;99.90;;;;;;6116285;23;20451;-87
2022/05/08 01:30:08;;;;;;;23.00;20.87;;;13.10;99.90;;;;;;6105204;23;20425;-88
2022/05/08 01:32:35;;;;;;;21.60;19.70;;;12.90;99.90;;;;;;6100788;23;20416;-88
2022/05/08 01:35:02;;;;;;;23.30;21.00;;;12.80;99.90;;;;;;6097283;23;20724;-88
2022/05/08 01:37:28;;;;;;;21.43;19.53;;;12.70;99.90;;;;;;6096733;23;20943;-88
2022/05/08 01:39:57;;;;;;;22.37;20.27;;;12.60;99.90;;;;;;6096676;23;20771;-88
2022/05/08 01:42:27;;;;;;;23.40;21.50;;;12.60;99.90;;;;;;6096265;23;20408;-88
2022/05/08 01:44:54;;;;;;;21.43;19.43;;;12.60;99.90;;;;;;6102672;23;20724;-87
2022/05/08 01:50:16;;;;;;;21.37;19.43;;;12.60;99.90;;;;;;6013043;23;20430;-88
2022/05/08 01:52:42;;;;;;;23.33;21.17;;;12.60;99.90;;;;;;6077305;23;20410;-87
2022/05/08 01:55:11;;;;;;;25.33;23.13;;;12.70;99.90;;;;;;6104415;23;20943;-88
2022/05/08 01:57:37;;;;;;;23.23;21.23;;;12.60;99.90;;;;;;6116702;23;20394;-87
2022/05/08 02:00:05;;;;;;;24.03;21.83;;;12.60;99.90;;;;;;6111390;23;20429;-88
2022/05/08 02:02:32;;;;;;;23.10;21.00;;;12.60;99.90;;;;;;6097716;23;20405;-87
2022/05/08 02:05:00;;;;;;;23.80;21.70;;;12.50;99.90;;;;;;6096709;23;20423;-87
2022/05/08 02:07:26;;;;;;;24.97;22.77;;;12.50;99.90;;;;;;6096853;23;20741;-87
2022/05/08 02:09:53;;;;;;;24.10;21.97;;;12.40;99.90;;;;;;6096087;23;20437;-87
2022/05/08 02:12:21;;;;;;;24.90;22.50;;;12.30;99.90;;;;;;6096369;23;20409;-88
2022/05/08 02:14:48;;;;;;;24.97;22.63;;;12.30;99.90;;;;;;6096532;23;20420;-88
2022/05/08 02:17:15;;;;;;;24.67;22.20;;;12.30;99.90;;;;;;6096529;23;20412;-87
2022/05/08 02:19:41;;;;;;;24.70;22.10;;;12.30;99.90;;;;;;6096864;23;20742;-87
2022/05/08 02:22:08;;;;;;;24.60;22.20;;;12.40;99.90;;;;;;6097291;23;20415;-87
2022/05/08 02:24:35;;;;;;;25.77;23.33;;;12.30;99.90;;;;;;6098639;23;20409;-88
2022/05/08 02:27:01;;;;;;;27.03;24.57;;;12.20;99.90;;;;;;6100954;23;20405;-87
2022/05/08 02:29:30;;;;;;;26.23;23.63;;;12.20;99.90;;;;;;6097072;23;20453;-87
2022/05/08 02:31:56;;;;;;;25.27;22.97;;;12.20;99.90;;;;;;6097687;23;20433;-87
2022/05/08 02:34:23;;;;;;;24.13;21.97;;;12.20;99.90;;;;;;6096704;23;20393;-87
2022/05/08 02:36:50;;;;;;;25.60;23.20;;;12.20;99.90;;;;;;6095983;23;20765;-88
2022/05/08 02:39:16;;;;;;;25.80;23.27;;;12.20;99.90;;;;;;6096628;23;20441;-88
2022/05/08 02:41:43;;;;;;;25.83;23.37;;;12.10;99.90;;;;;;6112059;23;20409;-88
2022/05/08 02:44:10;;;;;;;25.60;23.00;;;12.10;99.90;;;;;;6119994;23;20393;-88
2022/05/08 02:46:38;;;;;;;24.77;22.47;;;12.10;99.90;;;;;;6097285;23;20401;-87
2022/05/08 02:49:05;;;;;;;25.33;23.13;;;12.10;99.90;;;;;;6096510;23;20974;-88
2022/05/08 02:51:32;;;;;;;24.63;22.43;;;12.10;99.90;;;;;;6096723;23;20918;-87
2022/05/08 02:53:59;;;;;;;25.00;22.70;;;12.10;99.90;;;;;;6096475;23;20411;-88
2022/05/08 02:59:10;;;;;;;25.60;23.40;;;12.10;99.90;;;;;;6098253;23;20429;-88
2022/05/08 03:01:38;;;;;;;24.47;22.37;;;12.10;99.90;;;;;;6098334;23;20446;-87
2022/05/08 03:04:05;;;;;;;26.57;23.80;;;12.10;99.90;;;;;;6112214;23;20412;-87
2022/05/08 03:06:32;;;;;;;25.57;22.97;;;12.00;99.90;;;;;;6124843;23;20412;-87
2022/05/08 03:08:59;;;;;;;25.87;23.47;;;12.00;99.90;;;;;;6120792;23;20448;-87
2022/05/08 03:11:25;;;;;;;25.13;22.83;;;11.90;99.90;;;;;;6107606;23;20389;-88
2022/05/08 03:13:52;;;;;;;26.30;23.70;;;11.90;99.90;;;;;;6103244;23;20393;-87
2022/05/08 03:16:20;;;;;;;25.13;22.93;;;11.90;99.90;;;;;;6119932;23;20388;-87
2022/05/08 03:18:48;;;;;;;25.10;22.80;;;11.90;99.90;;;;;;6109885;23;20409;-88
2022/05/08 03:21:16;;;;;;;25.47;23.07;;;11.90;99.90;;;;;;6098715;23;20530;-88
2022/05/08 03:23:44;;;;;;;26.83;23.30;;;11.90;99.90;;;;;;6099476;23;20408;-87
2022/05/08 03:26:12;;;;;;;24.40;22.20;;;11.90;99.90;;;;;;6099408;23;20408;-87
2022/05/08 03:28:39;;;;;;;25.47;23.17;;;12.00;99.90;;;;;;6098347;23;20448;-87
2022/05/08 03:31:06;;;;;;;26.00;23.90;;;11.90;99.90;;;;;;6098699;23;20405;-88
2022/05/08 03:33:34;;;;;;;26.83;24.20;;;11.80;99.90;;;;;;6098034;23;20405;-88
2022/05/08 03:36:03;;;;;;;26.27;23.87;;;11.80;99.90;;;;;;6097733;23;20404;-88
2022/05/08 03:38:30;;;;;;;25.93;23.67;;;11.80;99.90;;;;;;6109501;23;20404;-87
2022/05/08 03:40:57;;;;;;;24.77;22.50;;;11.80;99.90;;;;;;6122382;23;20451;-87
2022/05/08 03:43:24;;;;;;;25.20;22.93;;;11.70;99.90;;;;;;6100248;23;20409;-87
2022/05/08 03:45:51;;;;;;;25.07;22.57;;;11.70;99.90;;;;;;6097518;23;20402;-87
2022/05/08 03:48:18;;;;;;;26.23;23.63;;;11.70;99.90;;;;;;6097575;23;20471;-87
2022/05/08 03:50:45;;;;;;;25.47;22.80;;;11.70;99.90;;;;;;6101967;23;20437;-87
2022/05/08 03:53:14;;;;;;;24.67;22.53;;;11.60;99.90;;;;;;6123934;23;20394;-86
2022/05/08 03:55:40;;;;;;;23.80;21.67;;;11.70;99.90;;;;;;6117483;23;20407;-87
2022/05/08 03:58:07;;;;;;;24.00;21.83;;;11.60;99.90;;;;;;6102015;23;20401;-88
2022/05/08 04:00:34;;;;;;;24.17;21.97;;;11.50;99.90;;;;;;6108998;23;20439;-88
2022/05/08 04:03:01;;;;;;;25.00;22.50;;;11.50;99.90;;;;;;6115307;23;20412;-87
2022/05/08 04:05:29;;;;;;;24.60;22.30;;;11.50;99.90;;;;;;6112387;23;20408;-88
2022/05/08 04:07:55;;;;;;;23.23;21.20;;;11.50;99.90;;;;;;6101834;23;20818;-88
2022/05/08 04:10:23;;;;;;;23.13;21.17;;;11.50;99.90;;;;;;6098345;23;20459;-87
2022/05/08 04:12:50;;;;;;;24.97;22.73;;;11.50;99.90;;;;;;6098451;23;20412;-87
2022/05/08 04:18:01;;;;;;;24.87;22.47;;;11.40;99.90;;;;;;6101548;23;20381;-87
2022/05/08 04:20:28;;;;;;;25.40;22.93;;;11.40;99.90;;;;;;6099090;23;20806;-87
2022/05/08 04:25:40;;;;;;;25.30;22.67;;;11.30;99.90;;;;;;6097321;23;20375;-88
2022/05/08 04:28:07;;;;;;;23.63;21.53;;;11.30;99.90;;;;;;6101696;23;20392;-87
2022/05/08 04:30:34;;;;;;;23.97;21.87;;;11.30;99.90;;;;;;6112145;23;20438;-88
2022/05/08 04:33:01;;;;;;;24.37;22.20;;;11.40;99.90;;;;;;6105111;23;20404;-87
2022/05/08 04:35:28;;;;;;;23.67;21.67;;;11.40;99.90;;;;;;6122309;23;20424;-87
2022/05/08 04:37:55;;;;;;;24.47;22.17;;;11.50;99.90;;;;;;6124564;23;20393;-86
2022/05/08 04:40:22;;;;;;;25.43;23.00;;;11.50;99.90;;;;;;6118592;23;20439;-87
2022/05/08 04:42:50;;;;;;;24.43;21.93;;;11.40;99.90;;;;;;6101541;23;20418;-87
2022/05/08 04:45:16;;;;;;;25.10;22.70;;;11.50;99.90;;;;;;6097730;23;20413;-88
2022/05/08 04:47:43;;;;;;;25.87;23.33;;;11.60;99.90;;;;;;6108537;23;20413;-87
2022/05/08 04:50:10;;;;;;;26.63;24.13;;;11.60;99.90;;;;;;6108742;23;20810;-88
2022/05/08 04:52:37;;;;;;;24.13;21.60;;;11.60;99.90;;;;;;6098356;23;20991;-88
2022/05/08 04:55:04;;;;;;;24.80;22.50;;;11.70;99.90;;;;;;6096465;23;20393;-88
2022/05/08 04:57:31;;;;;;;24.27;21.97;;;11.80;99.90;;;;;;6096387;23;20895;-88
2022/05/08 05:00:00;;;;;;;25.40;23.00;;;11.80;99.90;;;;;;6096407;23;20434;-87
2022/05/08 05:02:27;;;;;;;26.60;24.10;;;11.90;99.90;;;;;;6096878;23;20503;-88
2022/05/08 05:04:54;;;;;;;25.20;22.80;;;11.90;99.90;;;;;;6096598;23;20438;-87
2022/05/08 05:07:21;;;;;;;25.00;22.67;;;11.80;99.90;;;;;;6109886;23;20404;-87
2022/05/08 05:09:47;;;;;;;25.50;23.10;;;11.70;99.90;;;;;;6121284;23;20466;-87
2022/05/08 05:12:14;;;;;;;24.80;22.50;;;11.70;99.90;;;;;;6102512;23;20401;-88
2022/05/08 05:14:41;;;;;;;24.33;21.90;;;11.70;99.90;;;;;;6098022;23;20746;-87
2022/05/08 05:17:09;;;;;;;23.07;20.97;;;11.80;99.90;;;;;;6097664;23;20435;-88
2022/05/08 05:19:35;;;;;;;24.00;22.00;;;11.90;99.90;;;;;;6097021;23;20425;-88
2022/05/08 05:22:02;;;;;;;24.90;22.60;;;12.00;99.90;;;;;;6122461;23;20415;-88
2022/05/08 05:24:30;;;;;;;23.80;21.70;;;12.10;99.90;;;;;;6110516;23;20776;-88
2022/05/08 05:26:57;;;;;;;23.50;21.07;;;12.20;99.90;;;;;;6098595;23;20411;-88
2022/05/08 05:29:23;;;;;;;25.53;23.13;;;12.20;99.90;;;;;;6096871;23;20447;-87
2022/05/08 05:31:50;;;;;;;23.13;21.00;;;12.30;99.90;;;;;;6096553;23;20411;-88
2022/05/08 05:34:18;;;;;;;24.03;22.03;;;12.30;99.90;;;;;;6096274;23;20412;-88
2022/05/08 05:36:45;;;;;;;24.47;22.17;;;12.20;99.90;;;;;;6096152;23;20735;-87
2022/05/08 05:39:11;;;;;;;23.67;21.60;;;12.30;99.90;;;;;;6095220;23;20444;-88
2022/05/08 05:41:38;;;;;;;21.93;20.03;;;12.30;99.90;;;;;;6095755;23;20417;-88
2022/05/08 05:44:05;;;;;;;23.63;21.43;;;12.40;99.90;;;;;;6096717;23;20456;-88
2022/05/08 05:49:17;;;;;;;22.43;20.50;;;12.40;99.90;;;;;;6096170;23;20830;-88
2022/05/08 05:51:44;;;;;;;23.07;21.10;;;12.40;99.90;;;;;;6109536;23;20409;-87
2022/05/08 05:54:11;;;;;;;23.97;21.83;;;12.30;99.90;;;;;;6116817;23;20400;-88
2022/05/08 05:56:39;;;;;;;22.10;20.30;;;12.40;99.90;;;;;;6123101;23;20410;-88
2022/05/08 05:59:05;;;;;;;22.87;20.90;;;12.50;99.90;;;;;;6103540;23;20463;-87
2022/05/08 06:01:32;;;;;;;24.47;22.23;;;12.60;99.90;;;;;;6098675;23;20474;-88
2022/05/08 06:03:59;;;;;;;24.27;22.27;;;12.60;99.90;;;;;;6097831;23;20414;-88
2022/05/08 06:06:27;;;;;;;23.43;21.23;;;12.70;99.90;;;;;;6097057;23;20420;-88
2022/05/08 06:08:53;;;;;;;23.80;21.87;;;12.80;99.90;;;;;;6104509;23;20448;-88
2022/05/08 06:11:20;;;;;;;21.50;19.60;;;12.90;99.90;;;;;;6121563;23;20456;-82
2022/05/08 06:13:47;;;;;;;23.27;21.27;;;13.10;99.90;;;;;;6131368;23;20409;-81
2022/05/08 06:16:13;;;;;;;21.63;19.73;;;13.20;99.90;;;;;;6132997;23;20404;-82
2022/05/08 06:18:40;;;;;;;23.17;21.17;;;13.40;99.90;;;;;;6132727;23;20408;-78
2022/05/08 06:21:09;;;;;;;24.10;22.10;;;13.30;99.90;;;;;;6113724;23;20427;-78
2022/05/08 06:23:37;;;;;;;24.30;22.20;;;13.40;99.90;;;;;;6107758;23;20455;-78
2022/05/08 06:26:04;;;;;;;22.43;20.20;;;13.50;99.90;;;;;;6107191;23;20752;-78
2022/05/08 06:28:31;;;;;;;23.20;21.10;;;13.60;99.90;;;;;;6107082;23;20412;-78
2022/05/08 06:30:58;;;;;;;23.67;21.37;;;13.50;99.90;;;;;;6108058;23;20461;-77
2022/05/08 06:33:25;;;;;;;22.00;20.00;;;13.60;99.90;;;;;;6108947;23;20432;-78
2022/05/08 06:35:54;;;;;;;23.40;21.40;;;13.70;99.90;;;;;;6108480;23;20408;-78
2022/05/08 06:38:21;;;;;;;22.57;20.67;;;13.90;99.90;;;;;;6109491;23;20408;-78
2022/05/08 06:40:49;;;;;;;22.33;20.43;;;13.90;99.90;;;;;;6109128;23;20414;-77
2022/05/08 06:43:16;;;;;;;22.83;20.83;;;14.00;99.90;;;;;;6109965;23;20406;-78
2022/05/08 06:45:44;;;;;;;23.37;21.17;;;14.20;99.90;;;;;;6109903;23;20414;-78
2022/05/08 06:48:10;;;;;;;23.67;21.57;;;14.40;99.90;;;;;;6107884;23;20522;-79
2022/05/08 06:50:37;;;;;;;24.77;22.50;;;14.70;99.90;;;;;;6111715;23;20459;-79
2022/05/08 06:53:06;;;;;;;23.07;21.17;;;15.10;99.90;;;;;;6108392;23;20389;-80
2022/05/08 06:55:34;;;;;;;23.23;21.23;;;15.20;99.90;;;;;;6115065;23;20419;-80
2022/05/08 06:58:03;;;;;;;25.20;22.70;;;15.30;99.90;;;;;;6106796;23;20739;-81
2022/05/08 07:03:14;;;;;;;23.73;21.73;;;15.80;99.90;;;;;;6099759;23;20943;-80
2022/05/08 07:05:45;;;;;;;23.40;21.20;;;16.00;99.90;;;;;;6099369;23;20514;-81
2022/05/08 07:08:12;;;;;;;22.10;20.27;;;16.10;99.90;;;;;;6099457;23;20411;-80
2022/05/08 07:10:39;;;;;;;23.30;21.33;;;16.40;99.90;;;;;;6098972;23;20444;-80
2022/05/08 07:13:07;;;;;;;22.30;20.47;;;16.50;99.90;;;;;;6100427;23;20417;-80
2022/05/08 07:15:34;;;;;;;21.40;19.70;;;16.60;99.50;;;;;;6100552;23;20750;-80
2022/05/08 07:18:01;;;;;;;20.97;19.27;;;16.70;98.70;;;;;;6112368;23;20502;-79
2022/05/08 07:20:27;;;;;;;21.97;20.10;;;16.80;98.90;;;;;;6109036;23;20429;-82
2022/05/08 07:22:54;;;;;;;22.23;20.43;;;16.90;98.20;;;;;;6104539;23;20952;-82
2022/05/08 07:25:21;;;;;;;22.07;20.37;;;17.30;97.80;;;;;;6102121;23;20397;-82
2022/05/08 07:27:48;;;;;;;22.83;20.83;;;17.60;97.50;;;;;;6101344;23;20416;-83
2022/05/08 07:30:16;;;;;;;22.07;20.17;;;17.70;96.60;;;;;;6102744;23;20448;-82
2022/05/08 07:32:44;;;;;;;23.77;21.77;;;17.50;96.50;;;;;;6111368;23;20417;-83
2022/05/08 07:37:55;;;;;;;22.00;20.27;;;17.40;96.80;;;;;;6102545;23;20380;-84
2022/05/08 07:40:22;;;;;;;22.70;20.80;;;17.50;96.70;;;;;;6099400;23;20448;-83
2022/05/08 07:42:49;;;;;;;21.83;20.10;;;17.40;96.20;;;;;;6104251;23;20428;-82
2022/05/08 07:45:17;;;;;;;23.33;21.33;;;17.80;96.40;;;;;;6102871;23;20923;-83
2022/05/08 07:47:44;;;;;;;23.23;21.20;;;18.20;95.40;;;;;;6099279;23;20409;-83
2022/05/08 07:50:11;;;;;;;20.43;18.73;;;18.20;94.60;;;;;;6098948;23;20769;-82
2022/05/08 07:52:39;;;;;;;22.80;21.00;;;18.00;94.70;;;;;;6099287;23;20892;-82
2022/05/08 07:55:07;;;;;;;22.40;20.23;;;18.20;95.10;;;;;;6112501;23;20405;-80
2022/05/08 07:57:34;;;;;;;21.80;19.90;;;18.00;94.50;;;;;;6122971;23;20395;-86
2022/05/08 08:00:03;;;;;;;21.83;20.00;;;17.60;94.90;;;;;;6119368;23;20439;-83
2022/05/08 08:02:32;;;;;;;24.93;22.50;;;17.50;95.30;;;;;;6123392;23;20456;-86
2022/05/08 08:04:59;;;;;;;23.23;21.33;;;17.20;95.90;;;;;;6107698;23;20381;-84
2022/05/08 08:07:26;;;;;;;24.60;22.70;;;17.30;96.30;;;;;;6101571;23;20498;-85
2022/05/08 08:09:54;;;;;;;23.77;21.63;;;17.40;96.10;;;;;;6102999;23;20455;-84
2022/05/08 08:12:23;;;;;;;21.30;19.60;;;17.70;95.80;;;;;;6103736;23;20441;-81
2022/05/08 08:14:50;;;;;;;22.53;20.63;;;17.80;95.30;;;;;;6105954;23;20419;-84
2022/05/08 08:17:17;;;;;;;21.87;19.90;;;18.10;95.20;;;;;;6102109;23;20809;-83
2022/05/08 08:19:45;;;;;;;22.90;21.07;;;18.40;94.60;;;;;;6101167;23;20443;-85
2022/05/08 08:22:12;;;;;;;21.70;19.90;;;18.60;94.00;;;;;;6100859;23;20425;-85
2022/05/08 08:24:40;;;;;;;22.13;20.17;;;18.80;93.40;;;;;;6113694;23;20413;-85
2022/05/08 08:27:07;;;;;;;22.43;20.47;;;19.00;93.30;;;;;;6114583;23;20468;-86
2022/05/08 08:29:34;;;;;;;21.97;20.17;;;19.30;92.80;;;;;;6108242;23;20968;-86
2022/05/08 08:32:01;;;;;;;22.17;20.50;;;19.40;92.40;;;;;;6101852;23;20414;-85
2022/05/08 08:34:28;;;;;;;21.47;19.67;;;19.70;91.80;;;;;;6099912;23;20407;-86
2022/05/08 08:36:56;;;;;;;21.70;19.70;;;20.20;91.70;;;;;;6099048;23;20933;-84
2022/05/08 08:39:23;;;;;;;20.47;18.67;;;20.80;90.60;;;;;;6099985;23;20421;-84
2022/05/08 08:41:56;;;;;;;18.53;17.03;;;21.80;88.40;;;;;;6100549;23;20416;-85
2022/05/08 08:50:03;;;;;;;19.00;17.63;;;24.80;76.10;;;;;;6101188;23;20487;-86
2022/05/08 08:52:31;;;;;;;18.83;17.43;;;25.60;73.20;;;;;;6099747;23;20443;-85
2022/05/08 08:54:59;;;;;;;18.10;16.80;;;26.50;69.30;;;;;;6098422;23;20953;-85
2022/05/08 08:57:26;;;;;;;18.20;16.80;;;27.40;64.90;;;;;;6098459;23;20417;-85
2022/05/08 08:59:53;;;;;;;17.37;15.90;;;28.00;62.50;;;;;;6100108;23;20424;-88
2022/05/08 09:02:20;;;;;;;16.70;15.37;;;27.80;61.30;;;;;;6114089;23;20406;-86
2022/05/08 09:04:49;;;;;;;17.40;16.10;;;27.80;59.90;;;;;;6109357;23;20413;-86
2022/05/08 09:07:38;;;;;;;17.53;16.20;;;28.30;58.90;;;;;;6107091;23;20397;-86
2022/05/08 09:10:13;;;;;;;16.53;15.33;;;29.30;57.90;;;;;;6108755;23;20448;-85
2022/05/08 09:12:41;;;;;;;15.00;13.90;;;30.90;55.10;;;;;;6101750;23;20412;-84
2022/05/08 09:15:24;;;;;;;14.97;13.90;;;32.30;52.40;;;;;;6099631;23;20416;-84
2022/05/08 09:17:52;;;;;;;14.00;12.93;;;33.00;50.30;;;;;;6100058;23;20396;-86
2022/05/08 09:20:40;;;;;;;12.97;12.07;;;33.90;48.30;;;;;;6101142;23;20429;-87
2022/05/08 09:23:11;;;;;;;12.90;12.00;;;33.70;46.70;;;;;;6090080;23;20430;-85
2022/05/08 09:25:52;;;;;;;13.73;12.77;;;33.00;46.60;;;;;;6097388;23;20397;-86
2022/05/08 09:28:20;;;;;;;11.87;11.07;;;33.00;46.20;;;;;;6097773;23;20460;-85
2022/05/08 09:31:05;;;;;;;12.83;11.93;;;32.90;46.50;;;;;;6100186;23;20504;-86
2022/05/08 09:33:36;;;;;;;11.33;10.53;;;31.20;47.90;;;;;;6101178;23;20712;-85
2022/05/08 09:36:05;;;;;;;12.00;11.03;;;30.50;49.20;;;;;;6104752;23;20764;-87
2022/05/08 09:38:47;;;;;;;12.67;11.67;;;30.20;49.40;;;;;;6103789;23;20417;-86
2022/05/08 09:41:17;;;;;;;11.47;10.67;;;29.80;50.60;;;;;;6105648;23;20438;-85
2022/05/08 09:43:44;;;;;;;12.13;11.23;;;29.30;50.60;;;;;;6102055;23;20465;-85
2022/05/08 09:46:11;;;;;;;13.60;12.50;;;28.60;51.60;;;;;;6099313;23;20491;-85
2022/05/08 09:48:38;;;;;;;12.50;11.60;;;28.10;53.10;;;;;;6101112;23;20457;-86
2022/05/08 09:51:06;;;;;;;13.40;12.33;;;27.50;54.30;;;;;;6099587;23;20445;-85
2022/05/08 09:53:34;;;;;;;13.10;12.20;;;27.10;54.40;;;;;;6095916;23;20518;-85
2022/05/08 09:56:07;;;;;;;14.10;13.00;;;26.50;55.60;;;;;;6072588;23;20501;-84
2022/05/08 09:58:34;;;;;;;14.83;13.47;;;26.20;56.60;;;;;;6102266;23;20389;-84
2022/05/08 10:01:01;;;;;;;13.40;12.50;;;25.40;58.80;;;;;;6100539;23;20931;-85
2022/05/08 10:03:30;;;;;;;12.87;11.87;;;25.70;59.40;;;;;;6102296;23;20420;-86
2022/05/08 10:05:59;;;;;;;14.67;13.57;;;25.90;58.20;;;;;;6098938;23;20416;-86
2022/05/08 10:08:30;;;;;;;13.93;12.73;;;24.90;59.70;;;;;;6111639;23;20468;-87
2022/05/08 10:13:56;;;;;;;13.63;12.63;;;25.50;60.00;;;;;;6101350;23;20390;-86
2022/05/08 10:16:52;;;;;;;14.77;13.57;;;24.80;62.20;;;;;;6104396;23;20397;-86
2022/05/08 10:19:56;;;;;;;13.63;12.63;;;25.20;62.40;;;;;;6122411;23;20385;-88
2022/05/08 10:22:23;;;;;;;14.90;13.70;;;25.30;60.10;;;;;;6111751;23;20400;-87
2022/05/08 10:24:56;;;;;;;14.37;13.27;;;24.30;63.90;;;;;;6123663;23;20448;-87
2022/05/08 10:27:25;;;;;;;13.73;12.63;;;24.70;64.70;;;;;;6122043;23;20397;-85
2022/05/08 10:30:29;;;;;;;13.47;12.37;;;24.90;63.10;;;;;;6121528;23;20428;-87
2022/05/08 10:32:57;;;;;;;11.80;10.90;;;25.30;62.40;;;;;;6115658;23;20405;-86
2022/05/08 10:35:26;;;;;;;12.43;11.50;;;26.10;60.50;;;;;;6118236;23;20428;-85
2022/05/08 10:38:16;;;;;;;11.33;10.43;;;26.60;59.10;;;;;;6119612;23;20807;-85
2022/05/08 10:40:43;;;;;;;6.93;6.33;;;27.10;57.20;;;;;;6121994;23;20448;-87
2022/05/08 10:46:24;;;;;;;6.80;6.13;;;26.10;52.20;;;;;;6103582;23;20407;-86
2022/05/08 10:48:53;;;;;;;7.43;6.93;;;25.70;52.50;;;;;;6106517;23;20443;-85
2022/05/08 10:51:20;;;;;;;6.47;5.97;;;25.50;52.90;;;;;;6106627;23;20455;-86
2022/05/08 10:53:46;;;;;;;7.40;6.80;;;25.40;53.00;;;;;;6106758;23;20418;-84
2022/05/08 10:56:14;;;;;;;8.20;6.47;;;25.20;53.30;;;;;;6103918;23;20470;-86
2022/05/08 10:58:49;;;;;;;7.00;6.47;;;24.70;53.40;;;;;;6102427;23;20954;-85
2022/05/08 11:01:16;;;;;;;6.30;5.90;;;24.50;54.20;;;;;;6102079;23;20986;-85
2022/05/08 11:03:43;;;;;;;7.20;6.60;;;25.20;53.40;;;;;;6103353;23;20403;-85
2022/05/08 11:06:20;;;;;;;6.93;6.33;;;25.80;52.70;;;;;;6102594;23;20405;-86
2022/05/08 11:08:47;;;;;;;6.90;6.40;;;26.30;52.00;;;;;;6102829;23;20484;-85
2022/05/08 11:11:14;;;;;;;8.17;7.53;;;26.20;51.50;;;;;;6102609;23;20446;-86
2022/05/08 11:13:43;;;;;;;7.20;6.60;;;26.10;52.40;;;;;;6108498;23;20420;-84
2022/05/08 11:16:12;;;;;;;7.30;6.60;;;26.80;50.90;;;;;;6106272;23;20420;-87
2022/05/08 11:18:39;;;;;;;6.50;5.90;;;27.40;50.60;;;;;;6104019;23;20412;-85
2022/05/08 11:21:09;;;;;;;8.13;7.53;;;27.40;49.80;;;;;;6103979;23;20432;-86
2022/05/08 11:23:41;;;;;;;8.30;6.70;;;28.10;48.80;;;;;;6106066;23;20417;-84
2022/05/08 11:26:10;;;;;;;7.13;6.53;;;28.80;49.10;;;;;;6101807;23;20404;-86
2022/05/08 11:28:47;;;;;;;7.60;6.90;;;29.90;47.30;;;;;;6103602;23;20902;-84
2022/05/08 11:31:15;;;;;;;7.40;6.90;;;29.20;47.40;;;;;;6102869;23;20452;-85
2022/05/08 11:36:28;;;;;;;8.70;7.00;;;29.70;47.20;;;;;;6104626;23;20383;-84
2022/05/08 11:38:58;;;;;;;7.73;7.03;;;30.50;45.90;;;;;;6102479;23;20411;-84
2022/05/08 11:41:27;;;;;;;7.20;6.60;;;29.40;45.80;;;;;;6102827;23;20435;-86
2022/05/08 11:43:56;;;;;;;7.30;6.70;;;29.60;46.30;;;;;;6104121;23;20476;-85
2022/05/08 11:46:33;;;;;;;7.10;6.50;;;31.10;44.90;;;;;;6104599;23;20415;-87
2022/05/08 11:49:01;;;;;;;7.87;6.03;;;32.20;43.70;;;;;;6104482;23;21084;-84
2022/05/08 11:51:39;;;;;;;6.90;6.40;;;32.00;42.50;;;;;;6102975;23;20457;-85
2022/05/08 11:54:17;;;;;;;6.43;5.83;;;32.00;42.30;;;;;;6103415;23;20377;-85
2022/05/08 11:56:44;;;;;;;6.67;6.07;;;31.70;42.40;;;;;;6102794;23;20388;-86
2022/05/08 11:59:18;;;;;;;6.67;6.07;;;31.00;43.50;;;;;;6103119;23;20421;-84
2022/05/08 12:01:49;;;;;;;6.90;6.40;;;29.80;43.40;;;;;;6103391;23;20395;-84
2022/05/08 12:04:27;;;;;;;6.93;6.33;;;28.30;46.00;;;;;;6102691;23;20875;-85
2022/05/08 12:07:02;;;;;;;7.47;6.87;;;28.40;47.20;;;;;;6102976;23;20401;-85
2022/05/08 12:09:32;;;;;;;7.80;7.20;;;28.20;47.00;;;;;;6103693;23;20412;-85
2022/05/08 12:12:21;;;;;;;7.30;6.70;;;27.50;48.30;;;;;;6111496;23;20512;-84
2022/05/08 12:14:48;;;;;;;6.00;5.60;;;26.70;50.20;;;;;;6110503;23;20843;-84
2022/05/08 12:17:16;;;;;;;7.00;6.50;;;26.60;50.50;;;;;;6105486;23;20480;-85
2022/05/08 12:19:50;;;;;;;7.00;6.50;;;27.70;49.70;;;;;;6102746;23;20417;-84
2022/05/08 12:22:21;;;;;;;8.30;7.60;;;27.10;49.20;;;;;;6104119;23;20464;-85
2022/05/08 12:24:49;;;;;;;7.73;6.93;;;27.00;49.80;;;;;;6103556;23;20397;-86
2022/05/08 12:27:16;;;;;;;6.60;6.10;;;28.00;48.70;;;;;;6102657;23;20461;-85
2022/05/08 12:29:47;;;;;;;7.10;6.50;;;29.10;47.40;;;;;;6103082;23;20776;-85
2022/05/08 12:32:14;;;;;;;7.03;6.47;;;29.20;46.50;;;;;;6102312;23;20817;-85
2022/05/08 12:34:42;;;;;;;7.33;6.63;;;28.80;45.90;;;;;;6105778;23;20397;-86
2022/05/08 12:37:10;;;;;;;7.00;6.50;;;27.50;47.40;;;;;;6119596;23;20381;-86
2022/05/08 12:39:37;;;;;;;7.00;6.20;;;26.00;48.90;;;;;;6112544;23;20405;-85
2022/05/08 12:42:05;;;;;;;6.30;5.73;;;25.30;50.70;;;;;;6115010;23;20422;-85
2022/05/08 12:44:33;;;;;;;5.40;5.00;;;25.70;51.20;;;;;;6110947;23;20407;-86
2022/05/08 12:47:00;;;;;;;6.23;5.67;;;27.00;49.80;;;;;;6104300;23;20420;-85
2022/05/08 12:49:27;;;;;;;7.40;5.77;;;28.10;48.10;;;;;;6103064;23;20411;-86
2022/05/08 12:51:54;;;;;;;6.27;5.67;;;29.00;46.20;;;;;;6102303;23;20541;-84
2022/05/08 12:54:21;;;;;;;5.77;5.27;;;28.60;46.50;;;;;;6103447;23;20416;-84
2022/05/08 12:56:47;;;;;;;5.30;4.90;;;27.80;47.20;;;;;;6102602;23;20397;-84
2022/05/08 13:02:00;;;;;;;4.93;4.50;;;27.20;45.10;;;;;;6110841;23;20487;-85
2022/05/08 13:04:26;;;;;;;5.10;4.67;;;26.00;45.90;;;;;;6103790;23;20423;-85
2022/05/08 13:06:53;;;;;;;6.03;4.70;;;25.40;47.50;;;;;;6104358;23;20413;-84
2022/05/08 13:09:20;;;;;;;5.70;5.20;;;25.50;47.60;;;;;;6102688;23;20740;-84
2022/05/08 13:11:48;;;;;;;4.63;4.17;;;25.90;47.20;;;;;;6102171;23;20449;-84
2022/05/08 13:14:16;;;;;;;5.20;4.70;;;25.60;47.50;;;;;;6103280;23;20920;-82
2022/05/08 13:16:44;;;;;;;5.33;4.93;;;25.40;47.50;;;;;;6101662;23;20407;-82